FDX5GI ENGM-ESSB
Flight info
| Callsign | FDX5GI |
|---|---|
| Flight time | 0h 43m |
| Altitude | 35000 |
| Route | MASEV Z183 LEGPO DCT ARS |
| Aircraft | A306/H-SDE3FGHIRWY/LB1 |
Departure
| Time | 2026-05-05 14:08 |
|---|---|
| Airport | Oslo-Gardermoen International Airport (ENGM) |
Arrival
| Time | 2026-05-05 14:51 |
|---|---|
| Airport | Stockholm-Bromma Airport (ESSB) |
| Time | Latitude | Longitude | Altitude | Speed | Heading |
|---|---|---|---|---|---|
| 2026-05-05 13:19 | 60.19934 | 11.07666 | 680 ft | 0 kts | 265° |
| 2026-05-05 13:53 | 60.19935 | 11.07699 | 676 ft | 3 kts | 258° |
| 2026-05-05 13:54 | 60.19941 | 11.07736 | 677 ft | 3 kts | 238° |
| 2026-05-05 13:54 | 60.19952 | 11.07765 | 679 ft | 3 kts | 213° |
| 2026-05-05 13:54 | 60.19969 | 11.07782 | 677 ft | 3 kts | 188° |
| 2026-05-05 13:54 | 60.19987 | 11.07784 | 679 ft | 2 kts | 175° |
| 2026-05-05 13:55 | 60.19994 | 11.07783 | 680 ft | 0 kts | 175° |
| 2026-05-05 14:00 | 60.19975 | 11.07786 | 677 ft | 9 kts | 176° |
| 2026-05-05 14:01 | 60.19855 | 11.07815 | 679 ft | 24 kts | 155° |
| 2026-05-05 14:01 | 60.19817 | 11.07872 | 680 ft | 0 kts | 140° |
| 2026-05-05 14:01 | 60.19816 | 11.07873 | 680 ft | 0 kts | 140° |
| 2026-05-05 14:03 | 60.19795 | 11.07931 | 680 ft | 11 kts | 113° |
| 2026-05-05 14:04 | 60.19700 | 11.08086 | 679 ft | 26 kts | 165° |
| 2026-05-05 14:04 | 60.19565 | 11.08289 | 679 ft | 19 kts | 121° |
| 2026-05-05 14:04 | 60.19445 | 11.08314 | 678 ft | 22 kts | 200° |
| 2026-05-05 14:04 | 60.19258 | 11.08203 | 677 ft | 33 kts | 194° |
| 2026-05-05 14:05 | 60.19085 | 11.08092 | 676 ft | 23 kts | 191° |
| 2026-05-05 14:05 | 60.18930 | 11.08020 | 675 ft | 23 kts | 189° |
| 2026-05-05 14:05 | 60.18799 | 11.07951 | 671 ft | 17 kts | 206° |
| 2026-05-05 14:05 | 60.18686 | 11.07867 | 673 ft | 16 kts | 194° |
| 2026-05-05 14:06 | 60.18585 | 11.07776 | 671 ft | 15 kts | 228° |
| 2026-05-05 14:06 | 60.18577 | 11.07577 | 671 ft | 15 kts | 282° |
| 2026-05-05 14:06 | 60.18630 | 11.07462 | 670 ft | 9 kts | 355° |
| 2026-05-05 14:06 | 60.18664 | 11.07472 | 671 ft | 0 kts | 11° |
| 2026-05-05 14:07 | 60.18672 | 11.07475 | 671 ft | 6 kts | 13° |
| 2026-05-05 14:07 | 60.18679 | 11.07479 | 671 ft | 10 kts | 14° |
| 2026-05-05 14:07 | 60.19078 | 11.07699 | 678 ft | 109 kts | 16° |
| 2026-05-05 14:07 | 60.20116 | 11.08295 | 732 ft | 199 kts | 12° |
| 2026-05-05 14:08 | 60.21599 | 11.09142 | 1526 ft | 227 kts | 13° |
| 2026-05-05 14:08 | 60.22994 | 11.10368 | 2427 ft | 214 kts | 27° |
| 2026-05-05 14:08 | 60.24232 | 11.11881 | 3154 ft | 208 kts | 30° |
| 2026-05-05 14:08 | 60.25210 | 11.14104 | 3583 ft | 242 kts | 64° |
| 2026-05-05 14:09 | 60.25292 | 11.17749 | 4531 ft | 273 kts | 105° |
| 2026-05-05 14:09 | 60.24409 | 11.21095 | 5777 ft | 263 kts | 126° |
| 2026-05-05 14:09 | 60.23288 | 11.23830 | 6526 ft | 253 kts | 133° |
| 2026-05-05 14:09 | 60.22101 | 11.26451 | 6901 ft | 253 kts | 131° |
| 2026-05-05 14:10 | 60.21074 | 11.29325 | 6986 ft | 254 kts | 121° |
| 2026-05-05 14:10 | 60.20343 | 11.32554 | 6986 ft | 254 kts | 108° |
| 2026-05-05 14:10 | 60.19917 | 11.36005 | 6993 ft | 254 kts | 99° |
| 2026-05-05 14:10 | 60.19715 | 11.39533 | 6995 ft | 254 kts | 93° |
| 2026-05-05 14:11 | 60.19640 | 11.43082 | 6984 ft | 254 kts | 90° |
| 2026-05-05 14:11 | 60.19626 | 11.46629 | 7017 ft | 253 kts | 89° |
| 2026-05-05 14:11 | 60.19626 | 11.50184 | 7562 ft | 256 kts | 89° |
| 2026-05-05 14:11 | 60.19612 | 11.53786 | 8850 ft | 259 kts | 90° |
| 2026-05-05 14:12 | 60.19581 | 11.57408 | 10425 ft | 260 kts | 90° |
| 2026-05-05 14:12 | 60.19545 | 11.61072 | 11837 ft | 265 kts | 90° |
| 2026-05-05 14:12 | 60.19499 | 11.64813 | 13176 ft | 271 kts | 90° |
| 2026-05-05 14:12 | 60.19442 | 11.68657 | 14352 ft | 280 kts | 91° |
| 2026-05-05 14:13 | 60.19377 | 11.72664 | 15307 ft | 294 kts | 91° |
| 2026-05-05 14:13 | 60.19306 | 11.76864 | 16232 ft | 308 kts | 92° |
| 2026-05-05 14:13 | 60.19227 | 11.81250 | 17133 ft | 320 kts | 92° |
| 2026-05-05 14:13 | 60.19146 | 11.85797 | 18031 ft | 331 kts | 92° |
| 2026-05-05 14:14 | 60.19061 | 11.90511 | 18780 ft | 343 kts | 93° |
| 2026-05-05 14:14 | 60.18973 | 11.95372 | 19497 ft | 354 kts | 93° |
| 2026-05-05 14:14 | 60.18880 | 12.00393 | 20187 ft | 364 kts | 94° |
| 2026-05-05 14:14 | 60.18782 | 12.05549 | 20886 ft | 374 kts | 94° |
| 2026-05-05 14:15 | 60.18679 | 12.10835 | 21581 ft | 384 kts | 94° |
| 2026-05-05 14:15 | 60.18570 | 12.16256 | 22243 ft | 393 kts | 95° |
| 2026-05-05 14:15 | 60.18457 | 12.21803 | 22904 ft | 403 kts | 95° |
| 2026-05-05 14:15 | 60.18337 | 12.27536 | 23275 ft | 421 kts | 95° |
| 2026-05-05 14:16 | 60.18208 | 12.33552 | 23551 ft | 439 kts | 95° |
| 2026-05-05 14:16 | 60.18073 | 12.39775 | 23989 ft | 450 kts | 95° |
| 2026-05-05 14:16 | 60.17937 | 12.46088 | 24591 ft | 454 kts | 95° |
| 2026-05-05 14:16 | 60.17796 | 12.52450 | 25216 ft | 458 kts | 96° |
| 2026-05-05 14:17 | 60.17545 | 12.58826 | 25969 ft | 456 kts | 99° |
| 2026-05-05 14:17 | 60.17181 | 12.65116 | 26830 ft | 451 kts | 102° |
| 2026-05-05 14:17 | 60.16766 | 12.71356 | 27480 ft | 453 kts | 102° |
| 2026-05-05 14:17 | 60.16336 | 12.77571 | 28424 ft | 445 kts | 102° |
| 2026-05-05 14:18 | 60.15908 | 12.83740 | 29105 ft | 447 kts | 103° |
| 2026-05-05 14:18 | 60.15480 | 12.89843 | 29764 ft | 448 kts | 102° |
| 2026-05-05 14:18 | 60.15060 | 12.96132 | 30320 ft | 450 kts | 102° |
| 2026-05-05 14:18 | 60.14641 | 13.02344 | 30960 ft | 448 kts | 102° |
| 2026-05-05 14:19 | 60.14231 | 13.08524 | 31639 ft | 444 kts | 102° |
| 2026-05-05 14:19 | 60.13837 | 13.14513 | 32488 ft | 434 kts | 102° |
| 2026-05-05 14:19 | 60.13451 | 13.20475 | 33336 ft | 426 kts | 102° |
| 2026-05-05 14:19 | 60.13071 | 13.26326 | 33980 ft | 421 kts | 102° |
| 2026-05-05 14:20 | 60.12688 | 13.32130 | 34427 ft | 419 kts | 102° |
| 2026-05-05 14:20 | 60.12297 | 13.37922 | 34762 ft | 421 kts | 102° |
| 2026-05-05 14:20 | 60.11495 | 13.49567 | 34862 ft | 421 kts | 102° |
| 2026-05-05 14:21 | 60.11090 | 13.55386 | 34600 ft | 422 kts | 102° |
| 2026-05-05 14:21 | 60.10679 | 13.61250 | 34149 ft | 425 kts | 102° |
| 2026-05-05 14:21 | 60.10265 | 13.67120 | 33668 ft | 427 kts | 103° |
| 2026-05-05 14:21 | 60.09846 | 13.73023 | 33159 ft | 429 kts | 103° |
| 2026-05-05 14:22 | 60.09424 | 13.78943 | 32667 ft | 430 kts | 103° |
| 2026-05-05 14:22 | 60.08997 | 13.84882 | 32184 ft | 431 kts | 103° |
| 2026-05-05 14:22 | 60.08567 | 13.90840 | 31696 ft | 433 kts | 103° |
| 2026-05-05 14:22 | 60.08132 | 13.96817 | 31233 ft | 434 kts | 104° |
| 2026-05-05 14:23 | 60.07695 | 14.02801 | 30755 ft | 436 kts | 104° |
| 2026-05-05 14:23 | 60.07251 | 14.08824 | 30278 ft | 437 kts | 104° |
| 2026-05-05 14:23 | 60.06805 | 14.14849 | 29807 ft | 438 kts | 104° |
| 2026-05-05 14:23 | 60.06354 | 14.20895 | 29260 ft | 439 kts | 104° |
| 2026-05-05 14:24 | 60.05899 | 14.26945 | 28719 ft | 441 kts | 104° |
| 2026-05-05 14:24 | 60.05439 | 14.33022 | 28181 ft | 442 kts | 104° |
| 2026-05-05 14:24 | 60.04975 | 14.39123 | 27637 ft | 444 kts | 104° |
| 2026-05-05 14:24 | 60.04379 | 14.45160 | 27082 ft | 440 kts | 112° |
| 2026-05-05 14:25 | 60.03476 | 14.50879 | 26672 ft | 433 kts | 118° |
| 2026-05-05 14:25 | 60.02375 | 14.56455 | 26010 ft | 433 kts | 122° |
| 2026-05-05 14:25 | 60.01154 | 14.62062 | 25079 ft | 446 kts | 123° |
| 2026-05-05 14:25 | 59.99919 | 14.67749 | 24713 ft | 443 kts | 122° |
| 2026-05-05 14:26 | 59.98720 | 14.73437 | 24163 ft | 445 kts | 121° |
| 2026-05-05 14:26 | 59.97539 | 14.79139 | 23730 ft | 443 kts | 121° |
| 2026-05-05 14:26 | 59.96375 | 14.84798 | 23297 ft | 439 kts | 123° |
| 2026-05-05 14:26 | 59.95200 | 14.90402 | 22764 ft | 437 kts | 121° |
| 2026-05-05 14:27 | 59.94064 | 14.96020 | 22276 ft | 435 kts | 119° |
| 2026-05-05 14:27 | 59.92974 | 15.01619 | 21816 ft | 431 kts | 120° |
| 2026-05-05 14:27 | 59.91872 | 15.07131 | 21398 ft | 426 kts | 120° |
| 2026-05-05 14:27 | 59.90793 | 15.12564 | 21074 ft | 419 kts | 119° |
| 2026-05-05 14:28 | 59.89720 | 15.17931 | 20563 ft | 416 kts | 120° |
| 2026-05-05 14:28 | 59.88631 | 15.23281 | 20080 ft | 414 kts | 120° |
| 2026-05-05 14:28 | 59.87562 | 15.28567 | 19708 ft | 409 kts | 119° |
| 2026-05-05 14:28 | 59.86504 | 15.33785 | 19309 ft | 404 kts | 119° |
| 2026-05-05 14:29 | 59.85450 | 15.38951 | 18897 ft | 401 kts | 120° |
| 2026-05-05 14:29 | 59.84401 | 15.44057 | 18484 ft | 398 kts | 120° |
| 2026-05-05 14:29 | 59.83350 | 15.49138 | 18071 ft | 395 kts | 120° |
| 2026-05-05 14:29 | 59.82303 | 15.54175 | 17653 ft | 391 kts | 119° |
| 2026-05-05 14:30 | 59.81271 | 15.59128 | 17278 ft | 386 kts | 119° |
| 2026-05-05 14:30 | 59.80249 | 15.64017 | 16882 ft | 381 kts | 118° |
| 2026-05-05 14:30 | 59.79237 | 15.68846 | 16485 ft | 376 kts | 118° |
| 2026-05-05 14:30 | 59.78238 | 15.73609 | 16107 ft | 371 kts | 118° |
| 2026-05-05 14:31 | 59.77261 | 15.78253 | 15732 ft | 367 kts | 117° |
| 2026-05-05 14:31 | 59.76284 | 15.82887 | 15361 ft | 362 kts | 117° |
| 2026-05-05 14:31 | 59.75317 | 15.87466 | 14987 ft | 357 kts | 117° |
| 2026-05-05 14:31 | 59.74359 | 15.91988 | 14603 ft | 353 kts | 116° |
| 2026-05-05 14:32 | 59.73413 | 15.96449 | 14239 ft | 349 kts | 116° |
| 2026-05-05 14:32 | 59.72478 | 16.00850 | 13862 ft | 345 kts | 115° |
| 2026-05-05 14:32 | 59.71551 | 16.05204 | 13479 ft | 340 kts | 115° |
| 2026-05-05 14:32 | 59.70636 | 16.09497 | 13055 ft | 337 kts | 115° |
| 2026-05-05 14:33 | 59.69731 | 16.13738 | 12612 ft | 333 kts | 115° |
| 2026-05-05 14:33 | 59.68829 | 16.17952 | 12140 ft | 331 kts | 115° |
| 2026-05-05 14:33 | 59.67888 | 16.22081 | 11723 ft | 327 kts | 118° |
| 2026-05-05 14:33 | 59.66900 | 16.26103 | 11298 ft | 323 kts | 117° |
| 2026-05-05 14:34 | 59.65929 | 16.30076 | 10892 ft | 319 kts | 117° |
| 2026-05-05 14:34 | 59.64964 | 16.33997 | 10506 ft | 314 kts | 117° |
| 2026-05-05 14:34 | 59.64009 | 16.37853 | 10111 ft | 311 kts | 117° |
| 2026-05-05 14:34 | 59.63134 | 16.41354 | 9479 ft | 317 kts | 117° |
| 2026-05-05 14:35 | 59.62136 | 16.45293 | 8996 ft | 331 kts | 117° |
| 2026-05-05 14:35 | 59.61100 | 16.49391 | 8875 ft | 336 kts | 117° |
| 2026-05-05 14:35 | 59.60050 | 16.53537 | 8862 ft | 336 kts | 117° |
| 2026-05-05 14:35 | 59.59000 | 16.57669 | 8861 ft | 336 kts | 117° |
| 2026-05-05 14:36 | 59.57953 | 16.61791 | 8867 ft | 336 kts | 117° |
| 2026-05-05 14:36 | 59.56906 | 16.65910 | 8866 ft | 336 kts | 117° |
| 2026-05-05 14:36 | 59.55850 | 16.70025 | 8864 ft | 336 kts | 118° |
| 2026-05-05 14:36 | 59.54796 | 16.74132 | 8864 ft | 336 kts | 118° |
| 2026-05-05 14:37 | 59.53741 | 16.78244 | 8861 ft | 336 kts | 118° |
| 2026-05-05 14:37 | 59.52688 | 16.82354 | 8864 ft | 336 kts | 118° |
| 2026-05-05 14:37 | 59.51611 | 16.86556 | 8874 ft | 356 kts | 118° |
| 2026-05-05 14:37 | 59.50456 | 16.91050 | 8871 ft | 375 kts | 118° |
| 2026-05-05 14:38 | 59.49270 | 16.95663 | 8863 ft | 379 kts | 118° |
| 2026-05-05 14:38 | 59.48075 | 17.00297 | 8854 ft | 380 kts | 118° |
| 2026-05-05 14:38 | 59.46880 | 17.04934 | 8854 ft | 380 kts | 118° |
| 2026-05-05 14:38 | 59.45682 | 17.09557 | 8851 ft | 380 kts | 118° |
| 2026-05-05 14:39 | 59.44477 | 17.14183 | 8853 ft | 380 kts | 118° |
| 2026-05-05 14:39 | 59.43286 | 17.18747 | 8851 ft | 380 kts | 118° |
| 2026-05-05 14:39 | 59.42080 | 17.23360 | 8851 ft | 380 kts | 118° |
| 2026-05-05 14:39 | 59.40878 | 17.27952 | 8623 ft | 374 kts | 118° |
| 2026-05-05 14:40 | 59.39695 | 17.32467 | 7733 ft | 370 kts | 118° |
| 2026-05-05 14:40 | 59.38517 | 17.36954 | 6724 ft | 368 kts | 118° |
| 2026-05-05 14:40 | 59.37342 | 17.41396 | 5750 ft | 366 kts | 118° |
| 2026-05-05 14:40 | 59.36165 | 17.45784 | 4873 ft | 360 kts | 118° |
| 2026-05-05 14:41 | 59.34998 | 17.50083 | 4043 ft | 353 kts | 118° |
| 2026-05-05 14:41 | 59.33852 | 17.54312 | 3120 ft | 350 kts | 117° |
| 2026-05-05 14:41 | 59.32733 | 17.58522 | 2787 ft | 339 kts | 119° |
| 2026-05-05 14:41 | 59.31630 | 17.62550 | 2481 ft | 340 kts | 118° |
| 2026-05-05 14:42 | 59.30529 | 17.66750 | 2353 ft | 349 kts | 116° |
| 2026-05-05 14:42 | 59.29495 | 17.70831 | 2452 ft | 319 kts | 117° |
| 2026-05-05 14:42 | 59.28546 | 17.74581 | 2448 ft | 296 kts | 117° |
| 2026-05-05 14:42 | 59.27625 | 17.78084 | 2247 ft | 284 kts | 118° |
| 2026-05-05 14:43 | 59.26679 | 17.81468 | 1992 ft | 288 kts | 120° |
| 2026-05-05 14:43 | 59.25672 | 17.85162 | 2165 ft | 304 kts | 118° |
| 2026-05-05 14:43 | 59.24766 | 17.88704 | 2319 ft | 280 kts | 117° |
| 2026-05-05 14:43 | 59.23895 | 17.91930 | 2370 ft | 260 kts | 119° |
| 2026-05-05 14:44 | 59.23046 | 17.94926 | 2395 ft | 245 kts | 120° |
| 2026-05-05 14:44 | 59.22242 | 17.97792 | 2293 ft | 239 kts | 120° |
| 2026-05-05 14:44 | 59.21455 | 18.00573 | 2310 ft | 225 kts | 120° |
| 2026-05-05 14:44 | 59.20727 | 18.03193 | 2298 ft | 214 kts | 121° |
| 2026-05-05 14:45 | 59.19967 | 18.05778 | 2364 ft | 230 kts | 120° |
| 2026-05-05 14:45 | 59.19443 | 18.07625 | 2445 ft | 238 kts | 120° |
| 2026-05-05 14:45 | 59.18455 | 18.11492 | 2533 ft | 244 kts | 109° |
| 2026-05-05 14:45 | 59.18317 | 18.14761 | 2347 ft | 240 kts | 76° |
| 2026-05-05 14:46 | 59.18969 | 18.17730 | 2446 ft | 237 kts | 51° |
| 2026-05-05 14:46 | 59.19708 | 18.19306 | 2658 ft | 232 kts | 39° |
| 2026-05-05 14:46 | 59.21355 | 18.21983 | 2714 ft | 232 kts | 27° |
| 2026-05-05 14:46 | 59.22359 | 18.22709 | 2559 ft | 227 kts | 4° |
| 2026-05-05 14:47 | 59.23823 | 18.22464 | 2487 ft | 218 kts | 342° |
| 2026-05-05 14:47 | 59.25172 | 18.21625 | 2473 ft | 218 kts | 338° |
| 2026-05-05 14:47 | 59.26540 | 18.20411 | 2468 ft | 214 kts | 317° |
| 2026-05-05 14:47 | 59.27315 | 18.18014 | 2508 ft | 211 kts | 291° |
| 2026-05-05 14:48 | 59.27856 | 18.15637 | 2475 ft | 209 kts | 295° |
| 2026-05-05 14:48 | 59.28589 | 18.13206 | 2469 ft | 203 kts | 302° |
| 2026-05-05 14:48 | 59.29403 | 18.11039 | 2430 ft | 196 kts | 304° |
| 2026-05-05 14:48 | 59.30189 | 18.08833 | 2097 ft | 201 kts | 302° |
| 2026-05-05 14:49 | 59.31002 | 18.06544 | 1737 ft | 206 kts | 304° |
| 2026-05-05 14:49 | 59.31814 | 18.04291 | 1403 ft | 198 kts | 303° |
| 2026-05-05 14:49 | 59.32580 | 18.02156 | 1049 ft | 182 kts | 303° |
| 2026-05-05 14:49 | 59.33259 | 18.00257 | 774 ft | 161 kts | 303° |
| 2026-05-05 14:50 | 59.33890 | 17.98497 | 513 ft | 155 kts | 302° |
| 2026-05-05 14:50 | 59.34478 | 17.96840 | 304 ft | 140 kts | 302° |
| 2026-05-05 14:50 | 59.35007 | 17.95377 | 85 ft | 126 kts | 300° |
| 2026-05-05 14:50 | 59.35461 | 17.94102 | 58 ft | 95 kts | 304° |
| 2026-05-05 14:51 | 59.35742 | 17.93315 | 51 ft | 60 kts | 308° |
| 2026-05-05 14:51 | 59.35904 | 17.92880 | 54 ft | 15 kts | 307° |
| 2026-05-05 14:51 | 59.35964 | 17.92923 | 57 ft | 11 kts | 65° |
| 2026-05-05 14:51 | 59.35969 | 17.92946 | 60 ft | 0 kts | 68° |
| 2026-05-05 14:52 | 59.35970 | 17.92952 | 62 ft | 1 kts | 68° |
| 2026-05-05 14:52 | 59.35977 | 17.92994 | 56 ft | 6 kts | 73° |
| 2026-05-05 14:53 | 59.35987 | 17.93104 | 55 ft | 10 kts | 89° |
| 2026-05-05 14:53 | 59.35954 | 17.93250 | 59 ft | 14 kts | 123° |
| 2026-05-05 14:53 | 59.35918 | 17.93354 | 55 ft | 7 kts | 124° |
| 2026-05-05 14:53 | 59.35881 | 17.93459 | 54 ft | 8 kts | 124° |
| 2026-05-05 14:54 | 59.35840 | 17.93575 | 53 ft | 11 kts | 125° |
| 2026-05-05 14:54 | 59.35791 | 17.93711 | 48 ft | 14 kts | 125° |
| 2026-05-05 14:54 | 59.35729 | 17.93891 | 50 ft | 16 kts | 118° |
| 2026-05-05 14:54 | 59.35661 | 17.94081 | 49 ft | 12 kts | 114° |
| 2026-05-05 14:55 | 59.35704 | 17.94176 | 44 ft | 8 kts | 73° |
| 2026-05-05 14:55 | 59.35685 | 17.94258 | 43 ft | 7 kts | 117° |
| 2026-05-05 14:55 | 59.35681 | 17.94327 | 40 ft | 2 kts | 89° |